Time;durP1;ratioP1;P1;durP2;ratioP2;P2;SDS_P1;SDS_P2;PMS_P1;PMS_P2;Temp;Humidity;BMP_temperature;BMP_pressure;BME280_temperature;BME280_humidity;BME280_pressure;Samples;Min_cycle;Max_cycle;Signal;HPM_P1;HPM_P2
2023/06/04 00:02:15;;;;;;;1.40;1.30;;;;;;;;;;5116100;28;20412;-93
2023/06/04 00:04:41;;;;;;;2.00;0.80;;;;;;;;;;5116207;28;20822;-93
2023/06/04 00:07:07;;;;;;;2.93;1.10;;;;;;;;;;5116496;28;20424;-93
2023/06/04 00:09:32;;;;;;;1.40;0.83;;;;;;;;;;5116452;28;20178;-89
2023/06/04 00:11:58;;;;;;;2.53;0.80;;;;;;;;;;5115229;28;20547;-90
2023/06/04 00:14:24;;;;;;;1.73;0.90;;;;;;;;;;5115582;28;20172;-88
2023/06/04 00:16:50;;;;;;;3.87;1.47;;;;;;;;;;5115253;28;20483;-92
2023/06/04 00:19:16;;;;;;;3.90;1.30;;;;;;;;;;5115900;28;20910;-89
2023/06/04 00:21:42;;;;;;;3.00;0.80;;;;;;;;;;5115823;28;20178;-90
2023/06/04 00:24:08;;;;;;;2.10;1.03;;;;;;;;;;5115837;28;20442;-89
2023/06/04 00:26:34;;;;;;;2.30;0.63;;;;;;;;;;5114896;28;20860;-89
2023/06/04 00:29:01;;;;;;;2.57;1.00;;;;;;;;;;5116041;28;20502;-89
2023/06/04 00:31:27;;;;;;;3.40;0.80;;;;;;;;;;5114474;28;20975;-90
2023/06/04 00:33:53;;;;;;;1.90;1.13;;;;;;;;;;5115534;28;20426;-86
2023/06/04 00:36:19;;;;;;;2.03;0.90;;;;;;;;;;5100206;28;20180;-89
2023/06/04 00:38:47;;;;;;;2.20;1.00;;;;;;;;;;5094991;28;20896;-88
2023/06/04 00:41:18;;;;;;;2.00;1.03;;;;;;;;;;5094667;28;20425;-91
2023/06/04 00:43:45;;;;;;;1.40;0.60;;;;;;;;;;5095138;28;20411;-90
2023/06/04 00:46:17;;;;;;;2.33;1.00;;;;;;;;;;5095147;28;20502;-89
2023/06/04 00:48:43;;;;;;;2.33;1.30;;;;;;;;;;5094864;28;20402;-85
2023/06/04 00:51:09;;;;;;;4.10;1.40;;;;;;;;;;5094224;28;20494;-91
2023/06/04 00:53:35;;;;;;;2.53;1.10;;;;;;;;;;5095169;28;20423;-88
2023/06/04 00:56:01;;;;;;;2.00;0.87;;;;;;;;;;5095042;28;20439;-93
2023/06/04 00:58:27;;;;;;;3.63;1.33;;;;;;;;;;5095350;28;20453;-93
2023/06/04 01:00:56;;;;;;;3.23;1.30;;;;;;;;;;5077563;28;20506;-94
2023/06/04 01:03:24;;;;;;;1.87;1.37;;;;;;;;;;5094990;28;20415;-87
2023/06/04 01:06:09;;;;;;;2.07;1.07;;;;;;;;;;5095248;28;20452;-92
2023/06/04 01:08:36;;;;;;;2.40;1.37;;;;;;;;;;5094757;28;20822;-85
2023/06/04 01:11:02;;;;;;;2.27;1.50;;;;;;;;;;5077043;28;20446;-83
2023/06/04 01:13:28;;;;;;;1.40;1.30;;;;;;;;;;5113393;28;20829;-87
2023/06/04 01:15:54;;;;;;;4.77;1.63;;;;;;;;;;5113586;28;20417;-85
2023/06/04 01:18:29;;;;;;;2.87;1.17;;;;;;;;;;5113089;28;20499;-86
2023/06/04 01:21:00;;;;;;;3.50;1.70;;;;;;;;;;5095483;28;20432;-81
2023/06/04 01:23:34;;;;;;;2.40;2.20;;;;;;;;;;5113720;28;20408;-85
2023/06/04 01:26:03;;;;;;;3.23;2.30;;;;;;;;;;5113482;28;20556;-85
2023/06/04 01:28:29;;;;;;;3.50;2.70;;;;;;;;;;5113835;28;20406;-86
2023/06/04 01:30:56;;;;;;;4.20;3.53;;;;;;;;;;5113737;28;20440;-86
2023/06/04 01:33:22;;;;;;;7.17;3.90;;;;;;;;;;5114256;28;20465;-89
2023/06/04 01:35:49;;;;;;;5.50;4.00;;;;;;;;;;5115135;28;20413;-89
2023/06/04 01:38:15;;;;;;;4.50;3.83;;;;;;;;;;5115024;28;20499;-92
2023/06/04 01:40:41;;;;;;;3.70;3.20;;;;;;;;;;5114729;28;20478;-92
2023/06/04 01:43:07;;;;;;;4.47;4.07;;;;;;;;;;5115229;28;20409;-94
2023/06/04 01:45:33;;;;;;;5.27;3.70;;;;;;;;;;5114838;28;20411;-93
2023/06/04 01:48:01;;;;;;;3.60;3.07;;;;;;;;;;5114763;28;20507;-90
2023/06/04 01:50:27;;;;;;;4.57;2.90;;;;;;;;;;5096299;28;20417;-91
2023/06/04 01:52:53;;;;;;;4.70;3.00;;;;;;;;;;5095810;28;20475;-89
2023/06/04 01:55:22;;;;;;;5.07;2.80;;;;;;;;;;5113763;28;20405;-91
2023/06/04 01:57:48;;;;;;;3.50;3.20;;;;;;;;;;5113709;28;20409;-78
2023/06/04 02:00:14;;;;;;;5.50;3.30;;;;;;;;;;5114014;28;20427;-91
2023/06/04 02:02:41;;;;;;;2.47;2.27;;;;;;;;;;5096418;28;20420;-78
2023/06/04 02:05:07;;;;;;;3.20;2.10;;;;;;;;;;5099644;28;20416;-91
2023/06/04 02:07:40;;;;;;;4.83;3.17;;;;;;;;;;5117380;28;20461;-77
2023/06/04 02:10:07;;;;;;;3.33;2.40;;;;;;;;;;5117294;28;20836;-78
2023/06/04 02:12:33;;;;;;;3.93;3.03;;;;;;;;;;5136661;27;20466;-88
2023/06/04 02:14:59;;;;;;;3.73;2.80;;;;;;;;;;5137649;27;20473;-78
2023/06/04 02:17:27;;;;;;;3.60;2.03;;;;;;;;;;5109003;27;20458;-81
2023/06/04 02:19:55;;;;;;;2.50;1.70;;;;;;;;;;5102776;27;20421;-79
2023/06/04 02:22:21;;;;;;;3.00;1.20;;;;;;;;;;5137345;27;20488;-82
2023/06/04 02:24:47;;;;;;;2.90;1.50;;;;;;;;;;5137305;27;20450;-79
2023/06/04 02:27:14;;;;;;;3.77;1.57;;;;;;;;;;5136856;27;20173;-79
2023/06/04 02:29:40;;;;;;;2.50;1.87;;;;;;;;;;5118601;27;20419;-79
2023/06/04 02:32:06;;;;;;;2.37;1.23;;;;;;;;;;5136911;27;20904;-78
2023/06/04 02:34:33;;;;;;;2.60;1.50;;;;;;;;;;5137135;27;20408;-78
2023/06/04 02:37:00;;;;;;;1.80;1.20;;;;;;;;;;5118555;27;21240;-87
2023/06/04 02:39:25;;;;;;;2.80;1.33;;;;;;;;;;5136642;27;20900;-77
2023/06/04 02:41:51;;;;;;;7.17;2.30;;;;;;;;;;5136310;27;20415;-85
2023/06/04 02:44:17;;;;;;;3.23;1.40;;;;;;;;;;5136331;27;20412;-85
2023/06/04 02:46:44;;;;;;;2.20;1.00;;;;;;;;;;5118003;27;20426;-80
2023/06/04 02:49:13;;;;;;;3.00;1.10;;;;;;;;;;5136165;27;20424;-85
2023/06/04 02:51:39;;;;;;;2.53;1.03;;;;;;;;;;5136629;27;20973;-88
2023/06/04 02:54:05;;;;;;;4.97;1.40;;;;;;;;;;5118156;27;20428;-79
2023/06/04 02:56:31;;;;;;;2.00;1.27;;;;;;;;;;5116076;27;20430;-79
2023/06/04 02:58:57;;;;;;;2.80;1.03;;;;;;;;;;5095546;28;20422;-81
2023/06/04 03:01:23;;;;;;;4.10;0.83;;;;;;;;;;5095196;28;20440;-84
2023/06/04 03:03:50;;;;;;;2.00;1.47;;;;;;;;;;5095464;28;20439;-78
2023/06/04 03:06:16;;;;;;;5.70;1.77;;;;;;;;;;5077372;28;20416;-80
2023/06/04 03:08:43;;;;;;;4.10;0.87;;;;;;;;;;5094850;28;20433;-86
2023/06/04 03:11:14;;;;;;;2.07;1.13;;;;;;;;;;5076799;28;20404;-79
2023/06/04 03:13:41;;;;;;;5.13;2.23;;;;;;;;;;5076558;28;20520;-84
2023/06/04 03:16:09;;;;;;;11.07;1.47;;;;;;;;;;5076704;28;20418;-86
2023/06/04 03:18:39;;;;;;;2.80;1.07;;;;;;;;;;5076356;28;20474;-79
2023/06/04 03:21:05;;;;;;;3.03;1.23;;;;;;;;;;5094980;28;20416;-82
2023/06/04 03:23:31;;;;;;;1.70;0.60;;;;;;;;;;5095085;28;20550;-79
2023/06/04 03:25:57;;;;;;;1.40;0.90;;;;;;;;;;5094580;28;20406;-81
2023/06/04 03:28:23;;;;;;;1.80;1.10;;;;;;;;;;5094282;28;20745;-82
2023/06/04 03:30:49;;;;;;;3.10;0.97;;;;;;;;;;5094511;28;20779;-79
2023/06/04 03:33:15;;;;;;;3.23;1.73;;;;;;;;;;5076811;28;20474;-87
2023/06/04 03:35:41;;;;;;;4.70;1.97;;;;;;;;;;5094822;28;20499;-79
2023/06/04 03:38:07;;;;;;;3.47;1.95;;;;;;;;;;5094169;28;20444;-86
2023/06/04 03:40:33;;;;;;;2.20;1.20;;;;;;;;;;5094309;28;20180;-86
2023/06/04 03:43:00;;;;;;;2.90;2.00;;;;;;;;;;5094021;28;20500;-81
2023/06/04 03:45:26;;;;;;;3.50;1.20;;;;;;;;;;5094407;28;20179;-83
2023/06/04 03:47:52;;;;;;;3.43;1.87;;;;;;;;;;5076372;28;20486;-81
2023/06/04 03:50:18;;;;;;;4.27;1.27;;;;;;;;;;5094313;28;20512;-82
2023/06/04 03:52:44;;;;;;;3.30;1.73;;;;;;;;;;5094520;28;20552;-84
2023/06/04 03:55:13;;;;;;;2.57;1.60;;;;;;;;;;5094399;28;20834;-82
2023/06/04 03:57:39;;;;;;;4.97;1.80;;;;;;;;;;5094623;28;20414;-80
2023/06/04 04:00:11;;;;;;;2.50;0.90;;;;;;;;;;5094357;28;20515;-79
2023/06/04 04:02:37;;;;;;;3.23;1.37;;;;;;;;;;5094643;28;20937;-79
2023/06/04 04:05:03;;;;;;;2.17;1.30;;;;;;;;;;5076356;28;20410;-87
2023/06/04 04:07:29;;;;;;;3.10;1.57;;;;;;;;;;5076009;28;20415;-83
2023/06/04 04:09:56;;;;;;;2.50;1.70;;;;;;;;;;5093946;28;20427;-80
2023/06/04 04:12:22;;;;;;;2.40;1.67;;;;;;;;;;5094518;28;20481;-81
2023/06/04 04:14:48;;;;;;;4.70;1.93;;;;;;;;;;5094334;28;20736;-81
2023/06/04 04:17:15;;;;;;;4.73;2.23;;;;;;;;;;5094150;28;20550;-89
2023/06/04 04:19:41;;;;;;;2.83;2.20;;;;;;;;;;5094899;28;20409;-80
2023/06/04 04:22:08;;;;;;;3.23;1.63;;;;;;;;;;5094645;28;20808;-87
2023/06/04 04:24:36;;;;;;;5.93;1.60;;;;;;;;;;5094528;28;20464;-86
2023/06/04 04:27:03;;;;;;;4.13;2.60;;;;;;;;;;5094071;28;20431;-88
2023/06/04 04:29:32;;;;;;;3.53;1.27;;;;;;;;;;5094635;28;20401;-86
2023/06/04 04:32:00;;;;;;;3.17;1.60;;;;;;;;;;5094917;28;20472;-89
2023/06/04 04:34:26;;;;;;;4.00;1.70;;;;;;;;;;5094760;28;20399;-89
2023/06/04 04:36:52;;;;;;;2.40;1.13;;;;;;;;;;5094326;28;20422;-87
2023/06/04 04:39:20;;;;;;;2.13;1.10;;;;;;;;;;5076790;28;20419;-88
2023/06/04 04:41:46;;;;;;;2.97;1.37;;;;;;;;;;5094186;28;20419;-87
2023/06/04 04:44:12;;;;;;;2.70;0.67;;;;;;;;;;5094822;28;20410;-90
2023/06/04 04:46:38;;;;;;;4.93;1.00;;;;;;;;;;5094856;28;20631;-89
2023/06/04 04:49:03;;;;;;;1.97;0.87;;;;;;;;;;5094780;28;20422;-90
2023/06/04 04:51:29;;;;;;;2.73;1.10;;;;;;;;;;5093951;28;20237;-89
2023/06/04 04:53:55;;;;;;;1.57;0.50;;;;;;;;;;5094211;28;20426;-88
2023/06/04 04:56:22;;;;;;;2.70;1.20;;;;;;;;;;5094128;28;20765;-88
2023/06/04 04:58:54;;;;;;;3.10;1.50;;;;;;;;;;5094012;28;20419;-89
2023/06/04 05:01:21;;;;;;;2.50;0.73;;;;;;;;;;5093840;28;20490;-86
2023/06/04 05:03:47;;;;;;;1.40;0.77;;;;;;;;;;5075162;28;20514;-79
2023/06/04 05:06:13;;;;;;;3.20;0.83;;;;;;;;;;5093058;28;20418;-86
2023/06/04 05:08:39;;;;;;;2.00;1.13;;;;;;;;;;5093265;28;20407;-80
2023/06/04 05:11:05;;;;;;;3.37;1.30;;;;;;;;;;5092975;28;20184;-88
2023/06/04 05:13:31;;;;;;;3.53;0.80;;;;;;;;;;5093154;28;20907;-79
2023/06/04 05:15:57;;;;;;;3.30;0.87;;;;;;;;;;5093519;28;20448;-79
2023/06/04 05:18:28;;;;;;;2.97;0.43;;;;;;;;;;5093461;28;21004;-83
2023/06/04 05:20:54;;;;;;;1.13;0.70;;;;;;;;;;5093529;28;20456;-86
2023/06/04 05:23:20;;;;;;;3.00;0.80;;;;;;;;;;5093292;28;20465;-87
2023/06/04 05:25:48;;;;;;;2.10;1.00;;;;;;;;;;5093168;28;20413;-83
2023/06/04 05:28:14;;;;;;;2.07;0.50;;;;;;;;;;5093781;28;20399;-87
2023/06/04 05:30:41;;;;;;;3.13;0.80;;;;;;;;;;5102495;28;20417;-80
2023/06/04 05:33:09;;;;;;;2.93;0.60;;;;;;;;;;5101440;28;20506;-82
2023/06/04 05:35:34;;;;;;;1.17;0.40;;;;;;;;;;5105461;28;20413;-83
2023/06/04 05:38:00;;;;;;;2.33;1.43;;;;;;;;;;5108671;28;20412;-89
2023/06/04 05:40:27;;;;;;;2.40;0.73;;;;;;;;;;5115530;28;20197;-89
2023/06/04 05:42:53;;;;;;;2.70;0.80;;;;;;;;;;5109351;28;20192;-89
2023/06/04 05:45:18;;;;;;;1.23;0.63;;;;;;;;;;5105058;28;20420;-88
2023/06/04 05:47:44;;;;;;;4.30;1.03;;;;;;;;;;5108129;28;20270;-86
2023/06/04 05:50:10;;;;;;;2.50;0.50;;;;;;;;;;5104321;28;20172;-87
2023/06/04 05:52:37;;;;;;;3.83;0.77;;;;;;;;;;5107060;28;20469;-87
2023/06/04 05:55:03;;;;;;;2.10;1.10;;;;;;;;;;5108310;28;20409;-86
2023/06/04 05:57:29;;;;;;;1.13;0.67;;;;;;;;;;5105835;28;20414;-88
2023/06/04 05:59:55;;;;;;;2.00;0.60;;;;;;;;;;5107413;28;20425;-87
2023/06/04 06:02:21;;;;;;;2.30;0.60;;;;;;;;;;5107953;28;20437;-87
2023/06/04 06:04:47;;;;;;;1.57;0.63;;;;;;;;;;5107854;28;20434;-88
2023/06/04 06:07:13;;;;;;;1.33;0.40;;;;;;;;;;5109612;28;20251;-87
2023/06/04 06:09:39;;;;;;;2.20;1.00;;;;;;;;;;5106204;28;20489;-86
2023/06/04 06:12:05;;;;;;;4.00;0.83;;;;;;;;;;5107086;28;20496;-85
2023/06/04 06:14:31;;;;;;;1.43;0.57;;;;;;;;;;5107688;28;20406;-86
2023/06/04 06:16:57;;;;;;;1.40;0.60;;;;;;;;;;5087770;28;20527;-85
2023/06/04 06:19:23;;;;;;;3.40;1.20;;;;;;;;;;5109719;28;20398;-85
2023/06/04 06:21:49;;;;;;;1.60;0.80;;;;;;;;;;5116547;28;20411;-85
2023/06/04 06:24:15;;;;;;;1.90;0.50;;;;;;;;;;5116574;28;20412;-86
2023/06/04 06:26:42;;;;;;;3.47;0.53;;;;;;;;;;5115817;28;20498;-86
2023/06/04 06:29:11;;;;;;;1.67;0.60;;;;;;;;;;5130660;27;20667;-79
2023/06/04 06:31:37;;;;;;;0.97;0.30;;;;;;;;;;5135274;27;20442;-85
2023/06/04 06:34:03;;;;;;;3.40;1.80;;;;;;;;;;5136778;27;20770;-82
2023/06/04 06:36:30;;;;;;;1.90;0.97;;;;;;;;;;5136811;27;21023;-83
2023/06/04 06:38:55;;;;;;;3.07;0.60;;;;;;;;;;5137141;27;20407;-82
2023/06/04 06:41:21;;;;;;;1.60;0.70;;;;;;;;;;5137206;27;20509;-83
2023/06/04 06:43:47;;;;;;;1.00;0.37;;;;;;;;;;5137382;27;20895;-89
2023/06/04 06:46:13;;;;;;;0.90;0.40;;;;;;;;;;5137403;27;20502;-90
2023/06/04 06:48:40;;;;;;;2.20;0.70;;;;;;;;;;5137057;27;20416;-90
2023/06/04 06:51:06;;;;;;;3.73;0.80;;;;;;;;;;5137601;27;20193;-91
2023/06/04 06:53:32;;;;;;;2.40;0.53;;;;;;;;;;5137627;27;20506;-91
2023/06/04 06:55:58;;;;;;;1.90;0.50;;;;;;;;;;5137639;27;20263;-80
2023/06/04 06:58:24;;;;;;;2.23;0.60;;;;;;;;;;5137031;27;20185;-85
2023/06/04 07:00:50;;;;;;;1.83;0.50;;;;;;;;;;5136882;27;20171;-90
2023/06/04 07:03:16;;;;;;;2.73;0.40;;;;;;;;;;5137130;27;20398;-88
2023/06/04 07:05:42;;;;;;;1.00;0.60;;;;;;;;;;5137181;27;20174;-92
2023/06/04 07:08:08;;;;;;;2.17;1.03;;;;;;;;;;5118511;27;20421;-87
2023/06/04 07:10:34;;;;;;;3.70;0.77;;;;;;;;;;5136203;27;20169;-79
2023/06/04 07:13:00;;;;;;;1.10;0.70;;;;;;;;;;5118054;27;20218;-86
2023/06/04 07:15:25;;;;;;;2.83;0.30;;;;;;;;;;5136795;27;20170;-88
2023/06/04 07:17:52;;;;;;;3.97;0.40;;;;;;;;;;5137026;27;20229;-82
2023/06/04 07:20:18;;;;;;;1.90;0.43;;;;;;;;;;5136707;27;20186;-78
2023/06/04 07:22:43;;;;;;;1.20;0.50;;;;;;;;;;5136445;27;20401;-78
2023/06/04 07:25:09;;;;;;;1.10;0.20;;;;;;;;;;5117370;27;20163;-79
2023/06/04 07:27:35;;;;;;;1.93;0.40;;;;;;;;;;5136072;27;20203;-80
2023/06/04 07:30:01;;;;;;;1.00;0.37;;;;;;;;;;5135891;27;20397;-79
2023/06/04 07:32:27;;;;;;;3.27;0.50;;;;;;;;;;5117448;27;20645;-83
2023/06/04 07:34:56;;;;;;;0.90;0.20;;;;;;;;;;5135892;27;20258;-89
2023/06/04 07:37:22;;;;;;;3.50;0.57;;;;;;;;;;5135801;27;20401;-88
2023/06/04 07:39:48;;;;;;;1.47;0.50;;;;;;;;;;5135365;27;20511;-79
2023/06/04 07:42:14;;;;;;;0.97;0.30;;;;;;;;;;5138008;27;20199;-80
2023/06/04 07:44:39;;;;;;;0.90;0.23;;;;;;;;;;5135872;27;20179;-95
2023/06/04 07:47:06;;;;;;;1.37;0.30;;;;;;;;;;5118314;27;20439;-80
2023/06/04 07:49:31;;;;;;;1.43;0.33;;;;;;;;;;5136290;27;20167;-93
2023/06/04 07:51:57;;;;;;;2.00;0.80;;;;;;;;;;5135961;27;20468;-96
2023/06/04 07:54:24;;;;;;;1.47;0.30;;;;;;;;;;5118391;27;20178;-80
2023/06/04 07:56:55;;;;;;;1.83;0.30;;;;;;;;;;5136337;27;20171;-87
2023/06/04 07:59:21;;;;;;;1.60;0.30;;;;;;;;;;5117402;27;20408;-91
2023/06/04 08:01:47;;;;;;;1.70;0.20;;;;;;;;;;5100791;28;20413;-90
2023/06/04 08:04:13;;;;;;;1.57;0.30;;;;;;;;;;5087107;28;20776;-79
2023/06/04 08:06:39;;;;;;;1.70;0.30;;;;;;;;;;5087571;28;20251;-88
2023/06/04 08:09:05;;;;;;;2.90;0.77;;;;;;;;;;5082447;28;20164;-90
2023/06/04 08:11:31;;;;;;;0.87;0.30;;;;;;;;;;5084052;28;20931;-91
2023/06/04 08:13:57;;;;;;;1.77;0.30;;;;;;;;;;5105511;28;20182;-83
2023/06/04 08:16:23;;;;;;;2.67;0.30;;;;;;;;;;5107645;28;20196;-77
2023/06/04 08:18:49;;;;;;;3.53;0.80;;;;;;;;;;5103381;28;20418;-90
2023/06/04 08:21:25;;;;;;;2.10;0.53;;;;;;;;;;5102412;28;20612;-77
2023/06/04 08:23:51;;;;;;;2.17;0.50;;;;;;;;;;5104447;28;20410;-77
2023/06/04 08:26:17;;;;;;;1.27;0.43;;;;;;;;;;5102188;28;20557;-77
2023/06/04 08:28:43;;;;;;;1.13;0.30;;;;;;;;;;5103730;28;20176;-77
2023/06/04 08:31:09;;;;;;;1.10;0.30;;;;;;;;;;5104001;28;20410;-77
2023/06/04 08:33:35;;;;;;;1.50;0.30;;;;;;;;;;5102392;28;20218;-77
2023/06/04 08:36:01;;;;;;;2.07;0.73;;;;;;;;;;5102281;28;20761;-77
2023/06/04 08:38:27;;;;;;;1.23;0.50;;;;;;;;;;5103062;28;20171;-76
2023/06/04 08:40:53;;;;;;;1.53;0.37;;;;;;;;;;5103995;28;20182;-77
2023/06/04 08:43:19;;;;;;;2.83;0.50;;;;;;;;;;5102491;28;20172;-77
2023/06/04 08:45:50;;;;;;;1.77;0.30;;;;;;;;;;5103161;28;20409;-76
2023/06/04 08:48:18;;;;;;;1.10;0.33;;;;;;;;;;5101968;28;20429;-75
2023/06/04 08:50:47;;;;;;;0.87;0.23;;;;;;;;;;5084779;28;20449;-76
2023/06/04 08:53:14;;;;;;;2.87;0.30;;;;;;;;;;5104936;28;20473;-76
2023/06/04 08:55:40;;;;;;;1.27;0.23;;;;;;;;;;5106037;28;20416;-76
2023/06/04 08:58:08;;;;;;;0.63;0.20;;;;;;;;;;5103035;28;20514;-76
2023/06/04 09:00:33;;;;;;;0.90;0.30;;;;;;;;;;5101695;28;20577;-77
2023/06/04 09:03:03;;;;;;;3.10;0.50;;;;;;;;;;5109252;28;20461;-77
2023/06/04 09:05:29;;;;;;;0.73;0.37;;;;;;;;;;5104055;28;20530;-85
2023/06/04 09:07:55;;;;;;;1.90;0.30;;;;;;;;;;5101898;28;20410;-76
2023/06/04 09:10:22;;;;;;;1.37;0.47;;;;;;;;;;5102887;28;20761;-79
2023/06/04 09:12:49;;;;;;;1.77;0.20;;;;;;;;;;5084567;28;20989;-78
2023/06/04 09:15:15;;;;;;;1.33;0.30;;;;;;;;;;5085123;28;20414;-78
2023/06/04 09:17:41;;;;;;;0.83;0.23;;;;;;;;;;5100423;28;20488;-78
2023/06/04 09:20:08;;;;;;;0.57;0.20;;;;;;;;;;5085016;28;20172;-82
2023/06/04 09:22:38;;;;;;;0.83;0.20;;;;;;;;;;5083260;28;20172;-81
2023/06/04 09:25:04;;;;;;;1.67;0.20;;;;;;;;;;5102433;28;20470;-79
2023/06/04 09:27:38;;;;;;;1.53;0.20;;;;;;;;;;5103344;28;20893;-78
2023/06/04 09:30:04;;;;;;;1.33;0.30;;;;;;;;;;5102522;28;20402;-77
2023/06/04 09:32:30;;;;;;;0.60;0.20;;;;;;;;;;5101704;28;20476;-79
2023/06/04 09:34:57;;;;;;;1.53;0.70;;;;;;;;;;5085183;28;20405;-79
2023/06/04 09:37:23;;;;;;;0.60;0.20;;;;;;;;;;5102307;28;20836;-78
2023/06/04 09:39:55;;;;;;;0.93;0.20;;;;;;;;;;5101599;28;20848;-79
2023/06/04 09:42:22;;;;;;;1.07;0.40;;;;;;;;;;5101947;28;20425;-78
2023/06/04 09:44:48;;;;;;;2.20;0.43;;;;;;;;;;5101939;28;20470;-80
2023/06/04 09:47:15;;;;;;;1.17;0.30;;;;;;;;;;5103353;28;20945;-78
2023/06/04 09:49:52;;;;;;;1.30;0.20;;;;;;;;;;5101854;28;20928;-78
2023/06/04 09:52:20;;;;;;;1.37;0.30;;;;;;;;;;5101260;28;20457;-81
2023/06/04 09:54:46;;;;;;;1.10;0.27;;;;;;;;;;5101746;28;20452;-82
2023/06/04 09:57:16;;;;;;;1.30;0.20;;;;;;;;;;5085261;28;20838;-79
2023/06/04 09:59:43;;;;;;;1.97;0.50;;;;;;;;;;5101691;28;20176;-85
2023/06/04 10:02:09;;;;;;;1.33;0.40;;;;;;;;;;5083339;28;20981;-78
2023/06/04 10:04:36;;;;;;;2.70;0.50;;;;;;;;;;5102944;28;20417;-77
2023/06/04 10:07:04;;;;;;;0.57;0.23;;;;;;;;;;5101722;28;20399;-79
2023/06/04 10:09:30;;;;;;;1.70;0.47;;;;;;;;;;5101131;28;20452;-81
2023/06/04 10:11:57;;;;;;;2.00;0.40;;;;;;;;;;5084925;28;20520;-82
2023/06/04 10:14:25;;;;;;;0.90;0.20;;;;;;;;;;5101966;28;20429;-78
2023/06/04 10:16:51;;;;;;;0.90;0.30;;;;;;;;;;5100616;28;20877;-79
2023/06/04 10:19:18;;;;;;;1.47;0.40;;;;;;;;;;5084876;28;20441;-79
2023/06/04 10:21:44;;;;;;;1.43;0.47;;;;;;;;;;5101939;28;20414;-80
2023/06/04 10:24:11;;;;;;;1.40;0.20;;;;;;;;;;5102559;28;20837;-79
2023/06/04 10:26:37;;;;;;;5.70;1.13;;;;;;;;;;5106264;28;20419;-79
2023/06/04 10:29:03;;;;;;;1.43;0.60;;;;;;;;;;5105921;28;20409;-78
2023/06/04 10:31:30;;;;;;;1.17;0.43;;;;;;;;;;5087668;28;20440;-79
2023/06/04 10:33:56;;;;;;;1.10;0.67;;;;;;;;;;5104558;28;20203;-79
2023/06/04 10:36:23;;;;;;;4.37;0.57;;;;;;;;;;5105917;28;20454;-80
2023/06/04 10:38:52;;;;;;;2.20;0.40;;;;;;;;;;5105584;28;20406;-79
2023/06/04 10:41:19;;;;;;;1.13;0.40;;;;;;;;;;5104529;28;20407;-78
2023/06/04 10:43:49;;;;;;;1.00;0.30;;;;;;;;;;5105716;28;20413;-80
2023/06/04 10:46:16;;;;;;;1.57;0.20;;;;;;;;;;5106165;28;20798;-81
2023/06/04 10:48:48;;;;;;;2.03;0.60;;;;;;;;;;5104815;28;20914;-79
2023/06/04 10:51:14;;;;;;;0.90;0.30;;;;;;;;;;5104204;28;20849;-79
2023/06/04 10:53:40;;;;;;;1.27;0.40;;;;;;;;;;5103550;28;20493;-80
2023/06/04 10:56:05;;;;;;;2.70;0.80;;;;;;;;;;5104556;28;20457;-80
2023/06/04 10:58:32;;;;;;;1.87;0.67;;;;;;;;;;5093928;28;20211;-82
2023/06/04 11:00:58;;;;;;;1.50;0.63;;;;;;;;;;5076832;28;20172;-78
2023/06/04 11:03:24;;;;;;;2.23;0.60;;;;;;;;;;5095371;28;20429;-81
2023/06/04 11:05:50;;;;;;;3.03;0.60;;;;;;;;;;5095319;28;20179;-79
2023/06/04 11:08:28;;;;;;;1.10;0.40;;;;;;;;;;5083074;28;20173;-78
2023/06/04 11:10:54;;;;;;;1.13;0.30;;;;;;;;;;5102866;28;20565;-79
2023/06/04 11:13:24;;;;;;;1.93;0.50;;;;;;;;;;5105081;28;20555;-77
2023/06/04 11:15:50;;;;;;;5.20;2.20;;;;;;;;;;5104636;28;20921;-79
2023/06/04 11:18:17;;;;;;;1.30;0.50;;;;;;;;;;5103638;28;20461;-78
2023/06/04 11:20:45;;;;;;;1.47;0.50;;;;;;;;;;5103904;28;20175;-78
2023/06/04 11:23:11;;;;;;;1.90;0.73;;;;;;;;;;5106539;28;20456;-89
2023/06/04 11:25:37;;;;;;;1.40;0.63;;;;;;;;;;5103191;28;20414;-78
2023/06/04 11:28:06;;;;;;;0.80;0.40;;;;;;;;;;5087026;28;20413;-79
2023/06/04 11:30:32;;;;;;;1.20;0.57;;;;;;;;;;5085766;28;20624;-79
2023/06/04 11:33:02;;;;;;;4.57;1.00;;;;;;;;;;5103368;28;20470;-80
2023/06/04 11:35:28;;;;;;;0.80;0.30;;;;;;;;;;5103860;28;20505;-79
2023/06/04 11:37:54;;;;;;;0.73;0.27;;;;;;;;;;5103462;28;20858;-80
2023/06/04 11:40:21;;;;;;;2.13;0.77;;;;;;;;;;5104884;28;20176;-78
2023/06/04 11:42:48;;;;;;;1.63;0.50;;;;;;;;;;5103998;28;20837;-80
2023/06/04 11:45:14;;;;;;;1.33;0.43;;;;;;;;;;5103817;28;20496;-80
2023/06/04 11:47:41;;;;;;;0.90;0.60;;;;;;;;;;5105355;28;20425;-80
2023/06/04 11:50:13;;;;;;;1.00;0.60;;;;;;;;;;5105373;28;20406;-89
2023/06/04 11:52:39;;;;;;;1.03;0.47;;;;;;;;;;5105863;28;20526;-84
2023/06/04 11:55:08;;;;;;;1.10;0.30;;;;;;;;;;5086256;28;20493;-80
2023/06/04 11:57:34;;;;;;;1.80;0.93;;;;;;;;;;5104847;28;20914;-88
2023/06/04 12:00:00;;;;;;;1.67;0.60;;;;;;;;;;5103170;28;20418;-86
2023/06/04 12:02:26;;;;;;;2.87;0.80;;;;;;;;;;5106095;28;20758;-90
2023/06/04 12:04:52;;;;;;;2.27;0.80;;;;;;;;;;5104226;28;20414;-90
2023/06/04 12:07:25;;;;;;;2.37;1.13;;;;;;;;;;5104583;28;20179;-88
2023/06/04 12:09:51;;;;;;;2.30;0.70;;;;;;;;;;5105557;28;20160;-83
2023/06/04 12:12:22;;;;;;;1.00;0.50;;;;;;;;;;5102601;28;20464;-87
2023/06/04 12:14:48;;;;;;;2.00;0.93;;;;;;;;;;5104534;28;20196;-88
2023/06/04 12:17:13;;;;;;;1.63;0.80;;;;;;;;;;5102521;28;20445;-79
2023/06/04 12:19:51;;;;;;;2.13;0.53;;;;;;;;;;5087118;28;20406;-87
2023/06/04 12:22:18;;;;;;;2.03;0.53;;;;;;;;;;5103996;27;20169;-82
2023/06/04 12:24:53;;;;;;;1.43;0.70;;;;;;;;;;5101496;28;20418;-87
2023/06/04 12:27:23;;;;;;;0.90;0.63;;;;;;;;;;5113629;28;20408;-79
2023/06/04 12:29:56;;;;;;;3.23;1.20;;;;;;;;;;5113761;28;20398;-87
2023/06/04 12:32:22;;;;;;;1.07;0.50;;;;;;;;;;5113612;28;20557;-85
2023/06/04 12:34:48;;;;;;;2.50;1.60;;;;;;;;;;5113625;28;20797;-81
2023/06/04 12:37:14;;;;;;;1.97;0.30;;;;;;;;;;5113751;28;20414;-84
2023/06/04 12:39:40;;;;;;;2.07;0.67;;;;;;;;;;5113193;28;20167;-87
2023/06/04 12:42:08;;;;;;;1.90;0.70;;;;;;;;;;5117719;27;20425;-85
2023/06/04 12:44:34;;;;;;;1.73;0.63;;;;;;;;;;5113868;28;20450;-84
2023/06/04 12:47:00;;;;;;;1.20;0.80;;;;;;;;;;5113054;28;20401;-87
2023/06/04 12:49:26;;;;;;;1.33;0.40;;;;;;;;;;5113588;28;20408;-85
2023/06/04 12:51:52;;;;;;;1.90;1.80;;;;;;;;;;5113620;28;20656;-86
2023/06/04 12:54:18;;;;;;;1.13;0.67;;;;;;;;;;5113185;28;20211;-79
2023/06/04 12:56:44;;;;;;;2.17;0.70;;;;;;;;;;5107064;28;20180;-81
2023/06/04 12:59:11;;;;;;;3.17;0.63;;;;;;;;;;5101975;28;20459;-84
2023/06/04 13:01:40;;;;;;;1.00;0.50;;;;;;;;;;5103646;28;20406;-78
2023/06/04 13:04:06;;;;;;;3.23;0.97;;;;;;;;;;5102770;28;20425;-78
2023/06/04 13:06:34;;;;;;;0.97;0.60;;;;;;;;;;5101568;28;20411;-78
2023/06/04 13:09:00;;;;;;;2.60;0.87;;;;;;;;;;5103014;28;20414;-80
2023/06/04 13:11:26;;;;;;;1.03;0.73;;;;;;;;;;5103024;28;20417;-84
2023/06/04 13:13:52;;;;;;;0.90;0.50;;;;;;;;;;5101480;28;20235;-79
2023/06/04 13:16:18;;;;;;;1.47;0.53;;;;;;;;;;5103487;28;20172;-84
2023/06/04 13:18:44;;;;;;;1.90;0.93;;;;;;;;;;5102455;28;20228;-86
2023/06/04 13:21:10;;;;;;;0.97;0.50;;;;;;;;;;5101725;28;20172;-84
2023/06/04 13:23:36;;;;;;;1.00;0.70;;;;;;;;;;5083284;28;20410;-84
2023/06/04 13:26:02;;;;;;;4.20;0.67;;;;;;;;;;5102940;28;20519;-84
2023/06/04 13:28:28;;;;;;;1.20;0.40;;;;;;;;;;5103046;28;20172;-85
2023/06/04 13:30:54;;;;;;;1.43;0.80;;;;;;;;;;5101592;28;20915;-85
2023/06/04 13:33:21;;;;;;;1.97;0.73;;;;;;;;;;5102886;28;20533;-84
2023/06/04 13:35:47;;;;;;;1.90;0.70;;;;;;;;;;5102920;28;20402;-85
2023/06/04 13:38:13;;;;;;;1.23;0.30;;;;;;;;;;5101268;28;20422;-83
2023/06/04 13:40:39;;;;;;;1.47;0.70;;;;;;;;;;5103062;28;20175;-86
2023/06/04 13:43:06;;;;;;;1.93;0.40;;;;;;;;;;5102720;28;20405;-85
2023/06/04 13:45:32;;;;;;;2.60;0.90;;;;;;;;;;5083121;28;20584;-83
2023/06/04 13:48:02;;;;;;;1.97;0.53;;;;;;;;;;5107630;28;20402;-83
2023/06/04 13:50:28;;;;;;;1.20;0.43;;;;;;;;;;5084759;28;20508;-82
2023/06/04 13:52:56;;;;;;;2.47;0.40;;;;;;;;;;5101059;28;20867;-80
2023/06/04 13:55:22;;;;;;;1.50;0.50;;;;;;;;;;5102284;28;20409;-85
2023/06/04 13:57:48;;;;;;;1.20;0.60;;;;;;;;;;5105305;28;20418;-81
2023/06/04 14:00:15;;;;;;;1.27;0.40;;;;;;;;;;5105221;28;20207;-84
2023/06/04 14:02:41;;;;;;;1.70;0.47;;;;;;;;;;5106816;28;20405;-79
2023/06/04 14:05:07;;;;;;;2.87;1.00;;;;;;;;;;5106107;28;20887;-82
2023/06/04 14:07:33;;;;;;;2.30;0.70;;;;;;;;;;5105152;28;20836;-84
2023/06/04 14:09:59;;;;;;;1.33;0.40;;;;;;;;;;5106521;28;20473;-84
2023/06/04 14:12:25;;;;;;;1.50;0.50;;;;;;;;;;5106185;28;20860;-82
2023/06/04 14:14:51;;;;;;;1.50;0.40;;;;;;;;;;5105163;28;20176;-84
2023/06/04 14:17:17;;;;;;;1.37;0.30;;;;;;;;;;5106551;28;20537;-84
2023/06/04 14:19:43;;;;;;;2.07;0.60;;;;;;;;;;5104309;28;20398;-83
2023/06/04 14:22:11;;;;;;;3.30;0.87;;;;;;;;;;5105756;28;20407;-78
2023/06/04 14:24:37;;;;;;;1.60;0.50;;;;;;;;;;5104662;28;20160;-78
2023/06/04 14:27:03;;;;;;;1.53;0.43;;;;;;;;;;5106088;28;20416;-78
2023/06/04 14:29:31;;;;;;;1.10;0.50;;;;;;;;;;5106438;28;20164;-77
2023/06/04 14:31:57;;;;;;;5.67;0.73;;;;;;;;;;5104687;28;20933;-78
2023/06/04 14:34:23;;;;;;;1.77;0.70;;;;;;;;;;5089024;28;20452;-78
2023/06/04 14:36:49;;;;;;;1.47;0.47;;;;;;;;;;5109994;28;20176;-78
2023/06/04 14:39:15;;;;;;;1.37;0.33;;;;;;;;;;5085504;28;20586;-78
2023/06/04 14:41:41;;;;;;;2.00;0.60;;;;;;;;;;5105619;28;20176;-78